createdAt,value
2022-09-01T00:00:01.829Z,101661.50
2022-09-01T00:02:28.869Z,101660.94
2022-09-01T00:04:55.471Z,101659.84
2022-09-01T00:07:21.770Z,101656.31
2022-09-01T00:09:48.062Z,101656.31
2022-09-01T00:12:14.515Z,101655.75
2022-09-01T00:14:41.601Z,101652.19
2022-09-01T00:17:08.089Z,101653.28
2022-09-01T00:19:34.926Z,101645.97
2022-09-01T00:22:01.505Z,101652.44
2022-09-01T00:24:27.894Z,101655.16
2022-09-01T00:26:55.108Z,101650.81
2022-09-01T00:29:21.514Z,101650.00
2022-09-01T00:31:47.922Z,101648.09
2022-09-01T00:34:14.320Z,101646.44
2022-09-01T00:36:40.747Z,101645.63
2022-09-01T00:39:07.123Z,101647.53
2022-09-01T00:41:39.768Z,101646.94
2022-09-01T00:44:06.441Z,101647.78
2022-09-01T00:46:32.927Z,101649.66
2022-09-01T00:49:01.871Z,101640.72
2022-09-01T00:51:28.222Z,101643.41
2022-09-01T00:53:54.832Z,101651.81
2022-09-01T00:56:21.194Z,101645.31
2022-09-01T00:58:47.509Z,101642.84
2022-09-01T01:01:13.861Z,101642.03
2022-09-01T01:03:40.725Z,101641.19
2022-09-01T01:06:07.022Z,101640.34
2022-09-01T01:08:33.394Z,101640.34
2022-09-01T01:10:59.928Z,101634.13
2022-09-01T01:13:26.372Z,101630.56
2022-09-01T01:15:52.718Z,101634.94
2022-09-01T01:18:23.454Z,101629.72
2022-09-01T01:20:50.241Z,101627.03
2022-09-01T01:23:16.532Z,101632.44
2022-09-01T01:25:44.233Z,101631.06
2022-09-01T01:28:10.543Z,101633.53
2022-09-01T01:30:37.177Z,101635.44
2022-09-01T01:33:03.599Z,101632.72
2022-09-01T01:35:29.930Z,101638.41
2022-09-01T01:37:56.366Z,101634.84
2022-09-01T01:40:22.834Z,101631.34
2022-09-01T01:42:49.561Z,101628.63
2022-09-01T01:45:16.113Z,101634.06
2022-09-01T01:47:42.509Z,101622.59
2022-09-01T01:50:09.053Z,101630.75
2022-09-01T01:52:35.339Z,101628.88
2022-09-01T01:55:05.328Z,101627.19
2022-09-01T01:57:31.734Z,101620.13
2022-09-01T01:59:58.081Z,101628.28
2022-09-01T02:02:24.513Z,101628.28
2022-09-01T02:04:50.990Z,101623.91
2022-09-01T02:07:17.826Z,101626.63
2022-09-01T02:09:44.224Z,101625.00
2022-09-01T02:12:10.601Z,101627.72
2022-09-01T02:14:37.054Z,101628.78
2022-09-01T02:17:03.429Z,101625.00
2022-09-01T02:19:29.889Z,101626.06
2022-09-01T02:21:56.275Z,101628.78
2022-09-01T02:24:22.665Z,101629.84
2022-09-01T02:26:48.974Z,101632.56
2022-09-01T02:29:15.349Z,101628.19
2022-09-01T02:31:42.374Z,101628.19
2022-09-01T02:34:08.779Z,101628.19
2022-09-01T02:36:35.173Z,101621.13
2022-09-01T02:39:01.531Z,101615.69
2022-09-01T02:41:27.976Z,101616.78
2022-09-01T02:43:54.524Z,101620.31
2022-09-01T02:46:20.912Z,101619.50
2022-09-01T02:48:47.388Z,101610.50
2022-09-01T02:51:13.646Z,101615.13
2022-09-01T02:53:39.962Z,101617.03
2022-09-01T02:56:06.490Z,101616.19
2022-09-01T02:58:32.899Z,101618.91
2022-09-01T03:01:00.036Z,101622.69
2022-09-01T03:03:26.833Z,101620.53
2022-09-01T03:05:53.365Z,101627.06
2022-09-01T03:08:19.864Z,101622.69
2022-09-01T03:10:46.796Z,101622.69
2022-09-01T03:13:13.309Z,101622.13
2022-09-01T03:15:39.632Z,101622.13
2022-09-01T03:18:06.054Z,101612.09
2022-09-01T03:20:32.488Z,101621.31
2022-09-01T03:22:58.828Z,101612.31
2022-09-01T03:25:25.157Z,101616.69
2022-09-01T03:27:51.706Z,101618.59
2022-09-01T03:30:18.034Z,101615.28
2022-09-01T03:32:46.191Z,101619.91
2022-09-01T03:35:12.549Z,101620.72
2022-09-01T03:37:38.929Z,101619.91
2022-09-01T03:40:05.311Z,101617.19
2022-09-01T03:42:31.630Z,101617.19
2022-09-01T03:44:58.027Z,101619.09
2022-09-01T03:47:24.469Z,101616.59
2022-09-01T03:49:50.914Z,101612.81
2022-09-01T03:52:17.368Z,101611.19
2022-09-01T03:54:43.800Z,101613.88
2022-09-01T03:57:10.105Z,101617.69
2022-09-01T03:59:36.574Z,101617.69
2022-09-01T04:02:04.216Z,101614.97
2022-09-01T04:04:30.821Z,101616.06
2022-09-01T04:06:57.449Z,101613.34
2022-09-01T04:09:25.122Z,101619.81
2022-09-01T04:11:51.500Z,101626.91
2022-09-01T04:14:17.902Z,101620.66
2022-09-01T04:16:44.951Z,101617.09
2022-09-01T04:19:11.368Z,101614.38
2022-09-01T04:21:37.634Z,101616.28
2022-09-01T04:24:03.965Z,101613.56
2022-09-01T04:26:30.266Z,101607.31
2022-09-01T04:28:57.455Z,101612.75
2022-09-01T04:31:24.007Z,101618.19
2022-09-01T04:33:50.604Z,101619.25
2022-09-01T04:36:17.105Z,101622.81
2022-09-01T04:38:43.557Z,101616.53
2022-09-01T04:41:09.816Z,101624.94
2022-09-01T04:43:36.177Z,101622.81
2022-09-01T04:46:02.788Z,101625.75
2022-09-01T04:48:29.621Z,101625.75
2022-09-01T04:50:56.459Z,101624.94
2022-09-01T04:53:22.801Z,101634.97
2022-09-01T04:55:54.816Z,101632.50
2022-09-01T04:58:21.222Z,101632.72
2022-09-01T05:00:47.737Z,101635.44
2022-09-01T05:03:14.130Z,101632.72
2022-09-01T05:05:40.508Z,101634.59
2022-09-01T05:08:06.908Z,101636.25
2022-09-01T05:10:33.209Z,101631.88
2022-09-01T05:12:59.533Z,101631.88
2022-09-01T05:15:25.878Z,101637.56
2022-09-01T05:17:52.441Z,101639.22
2022-09-01T05:20:20.698Z,101639.22
2022-09-01T05:22:47.057Z,101633.22
2022-09-01T05:25:13.435Z,101642.19
2022-09-01T05:27:39.855Z,101641.34
2022-09-01T05:30:06.361Z,101637.56
2022-09-01T05:32:32.760Z,101641.34
2022-09-01T05:34:59.145Z,101636.75
2022-09-01T05:37:25.553Z,101644.66
2022-09-01T05:39:51.845Z,101643.25
2022-09-01T05:42:18.182Z,101646.78
2022-09-01T05:44:44.611Z,101641.59
2022-09-01T05:47:11.030Z,101645.16
2022-09-01T05:49:47.086Z,101653.22
2022-09-01T05:52:13.438Z,101643.50
2022-09-01T05:54:39.930Z,101647.88
2022-09-01T05:57:23.768Z,101641.03
2022-09-01T05:59:52.618Z,101642.66
2022-09-01T06:02:19.096Z,101641.03
2022-09-01T06:04:45.562Z,101636.41
2022-09-01T06:07:13.642Z,101634.28
2022-09-01T06:09:43.252Z,101636.41
2022-09-01T06:12:13.815Z,101632.66
2022-09-01T06:14:40.245Z,101630.66
2022-09-01T06:17:06.883Z,101634.03
2022-09-01T06:19:36.974Z,101634.75
2022-09-01T06:22:04.159Z,101635.34
2022-09-01T06:24:30.584Z,101641.84
2022-09-01T06:26:56.954Z,101647.28
2022-09-01T06:29:23.356Z,101644.81
2022-09-01T06:31:49.839Z,101645.88
2022-09-01T06:34:16.250Z,101642.34
2022-09-01T06:36:42.660Z,101645.06
2022-09-01T06:39:09.029Z,101651.06
2022-09-01T06:41:35.355Z,101657.56
2022-09-01T06:44:01.673Z,101659.44
2022-09-01T06:46:28.197Z,101655.94
2022-09-01T06:48:54.683Z,101660.28
2022-09-01T06:51:21.821Z,101660.53
2022-09-01T06:53:49.350Z,101663.25
2022-09-01T06:56:15.883Z,101661.34
2022-09-01T06:58:42.274Z,101659.44
2022-09-01T07:01:10.377Z,101661.34
2022-09-01T07:03:39.847Z,101660.53
2022-09-01T07:06:06.260Z,101656.97
2022-09-01T07:08:32.987Z,101664.88
2022-09-01T07:16:33.375Z,101667.59
2022-09-01T07:19:02.816Z,101668.44
2022-09-01T07:21:39.127Z,101669.50
2022-09-01T07:24:11.089Z,101674.09
2022-09-01T07:26:46.375Z,101668.44
2022-09-01T07:29:13.826Z,101680.13
2022-09-01T07:34:46.310Z,101669.50
2022-09-01T07:45:29.366Z,101674.09
2022-09-01T07:47:55.785Z,101674.09
2022-09-01T07:50:39.820Z,101677.88
2022-09-01T07:53:07.213Z,101670.31
2022-09-01T07:55:33.584Z,101670.53
2022-09-01T07:58:01.268Z,101666.78
2022-09-01T08:00:31.025Z,101674.94
2022-09-01T08:02:57.886Z,101670.31
2022-09-01T08:05:25.035Z,101662.41
2022-09-01T08:07:52.480Z,101670.31
2022-09-01T08:10:20.217Z,101669.25
2022-09-01T08:12:46.982Z,101673.03
2022-09-01T08:18:08.730Z,101671.13
2022-09-01T08:20:35.121Z,101676.81
2022-09-01T08:23:01.710Z,101676.56
2022-09-01T08:25:28.000Z,101672.22
2022-09-01T08:27:59.801Z,101678.44
2022-09-01T08:30:26.418Z,101681.16
2022-09-01T08:32:53.175Z,101682.25
2022-09-01T08:35:19.989Z,101683.88
2022-09-01T08:37:46.384Z,101681.16
2022-09-01T08:40:12.945Z,101685.78
2022-09-01T08:42:39.397Z,101684.13
2022-09-01T08:45:05.750Z,101677.06
2022-09-01T08:47:43.703Z,101684.13
2022-09-01T08:50:11.007Z,101677.88
2022-09-01T08:52:37.368Z,101685.78
2022-09-01T08:55:03.721Z,101675.19
2022-09-01T08:57:30.088Z,101678.69
2022-09-01T08:59:56.793Z,101674.34
2022-09-01T09:02:23.367Z,101678.69
2022-09-01T09:04:49.873Z,101668.91
2022-09-01T09:07:16.176Z,101678.69
2022-09-01T09:09:42.598Z,101675.19
2022-09-01T09:12:08.935Z,101673.25
2022-09-01T09:14:35.293Z,101673.25
2022-09-01T09:17:01.971Z,101673.25
2022-09-01T09:19:28.348Z,101674.94
2022-09-01T09:21:54.977Z,101671.38
2022-09-01T09:24:22.684Z,101672.47
2022-09-01T09:26:49.362Z,101669.75
2022-09-01T09:29:15.682Z,101672.47
2022-09-01T09:31:42.116Z,101674.94
2022-09-01T09:34:09.998Z,101666.19
2022-09-01T09:36:36.422Z,101660.53
2022-09-01T09:39:02.970Z,101658.88
2022-09-01T09:41:30.069Z,101655.09
2022-09-01T09:43:56.417Z,101658.06
2022-09-01T09:46:24.542Z,101665.38
2022-09-01T09:48:52.049Z,101661.59
2022-09-01T09:51:18.383Z,101658.06
2022-09-01T09:53:44.733Z,101661.59
2022-09-01T09:56:11.071Z,101651.81
2022-09-01T09:58:37.488Z,101667.84
2022-09-01T10:01:05.256Z,101659.97
2022-09-01T10:03:31.819Z,101662.41
2022-09-01T10:05:58.215Z,101659.69
2022-09-01T10:08:24.563Z,101659.97
2022-09-01T10:10:58.180Z,101657.25
2022-09-01T10:13:25.068Z,101658.88
2022-09-01T10:15:51.670Z,101656.16
2022-09-01T10:18:28.493Z,101649.91
2022-09-01T10:20:55.618Z,101655.34
2022-09-01T10:23:22.749Z,101638.25
2022-09-01T10:25:50.236Z,101640.13
2022-09-01T10:28:20.976Z,101627.38
2022-09-01T10:30:47.611Z,101635.53
2022-09-01T10:33:19.912Z,101640.69
2022-09-01T10:35:48.179Z,101642.84
2022-09-01T10:38:14.675Z,101635.53
2022-09-01T10:40:43.851Z,101639.88
2022-09-01T10:43:12.431Z,101636.31
2022-09-01T10:45:43.145Z,101643.41
2022-09-01T10:48:13.281Z,101635.25
2022-09-01T10:50:39.707Z,101638.81
2022-09-01T10:53:06.441Z,101639.03
2022-09-01T10:55:32.907Z,101645.31
2022-09-01T10:58:08.483Z,101638.25
2022-09-01T11:01:10.748Z,101639.88
2022-09-01T11:03:40.895Z,101639.03
2022-09-01T11:06:12.310Z,101639.88
2022-09-01T11:08:39.439Z,101630.91
2022-09-01T11:11:05.704Z,101639.03
2022-09-01T11:13:33.037Z,101637.16
2022-09-01T11:16:00.746Z,101640.13
2022-09-01T11:18:27.207Z,101634.44
2022-09-01T11:20:53.892Z,101626.53
2022-09-01T11:23:20.262Z,101627.38
2022-09-01T11:25:47.441Z,101637.16
2022-09-01T11:28:14.293Z,101621.13
2022-09-01T11:30:40.842Z,101626.53
2022-09-01T11:33:08.354Z,101627.38
2022-09-01T11:35:34.901Z,101628.19
2022-09-01T11:38:03.668Z,101626.53
2022-09-01T11:40:32.588Z,101625.47
2022-09-01T11:42:59.130Z,101624.66
2022-09-01T11:45:25.918Z,101633.84
2022-09-01T11:47:52.273Z,101634.69
2022-09-01T11:50:18.606Z,101634.69
2022-09-01T11:52:44.967Z,101628.44
2022-09-01T11:55:11.265Z,101624.91
2022-09-01T11:57:37.598Z,101623.84
2022-09-01T12:00:03.992Z,101623.84
2022-09-01T12:02:30.762Z,101625.72
2022-09-01T12:04:57.294Z,101622.75
2022-09-01T12:07:23.929Z,101622.19
2022-09-01T12:09:50.665Z,101620.28
2022-09-01T12:12:17.030Z,101620.28
2022-09-01T12:15:02.363Z,101621.13
2022-09-01T12:17:29.933Z,101612.13
2022-09-01T12:19:56.285Z,101618.41
2022-09-01T12:22:22.600Z,101615.69
2022-09-01T12:24:49.118Z,101617.31
2022-09-01T12:27:16.687Z,101613.81
2022-09-01T12:29:43.022Z,101609.41
2022-09-01T12:32:09.395Z,101612.97
2022-09-01T12:34:35.823Z,101598.00
2022-09-01T12:37:02.558Z,101601.28
2022-09-01T12:39:29.186Z,101600.47
2022-09-01T12:41:55.656Z,101606.72
2022-09-01T12:44:21.989Z,101600.47
2022-09-01T12:46:48.329Z,101595.03
2022-09-01T12:51:46.081Z,101595.03
2022-09-01T12:54:12.415Z,101589.38
2022-09-01T12:56:38.762Z,101595.59
2022-09-01T12:59:05.117Z,101593.97
2022-09-01T13:01:31.564Z,101594.81
2022-09-01T13:03:58.063Z,101582.88
2022-09-01T13:06:24.494Z,101579.56
2022-09-01T13:08:50.871Z,101586.38
2022-09-01T13:11:17.386Z,101575.53
2022-09-01T13:13:43.656Z,101575.53
2022-09-01T13:16:09.980Z,101581.22
2022-09-01T13:19:10.469Z,101577.69
2022-09-01T13:21:22.624Z,101578.25
2022-09-01T13:23:49.002Z,101577.44
2022-09-01T13:26:15.320Z,101576.34
2022-09-01T13:28:41.813Z,101574.72
2022-09-01T13:34:11.035Z,101571.75
2022-09-01T13:36:43.668Z,101569.03
2022-09-01T13:39:12.345Z,101570.09
2022-09-01T13:41:38.955Z,101566.56
2022-09-01T13:44:05.510Z,101566.34
2022-09-01T13:46:31.973Z,101564.94
2022-09-01T13:49:42.143Z,101569.28
2022-09-01T13:51:46.678Z,101571.75
2022-09-01T13:54:12.982Z,101569.53
2022-09-01T13:56:39.445Z,101563.03
2022-09-01T13:59:05.902Z,101565.75
2022-09-01T14:01:32.210Z,101563.03
2022-09-01T14:04:00.502Z,101561.94
2022-09-01T14:06:27.406Z,101561.16
2022-09-01T14:08:53.789Z,101561.38
2022-09-01T14:11:20.149Z,101563.03
2022-09-01T14:13:46.430Z,101558.44
2022-09-01T14:16:12.931Z,101561.16
2022-09-01T14:18:39.552Z,101558.19
2022-09-01T14:21:05.942Z,101556.53
2022-09-01T14:23:32.369Z,101553.81
2022-09-01T14:25:58.883Z,101550.03
2022-09-01T14:28:25.430Z,101550.84
2022-09-01T14:33:17.076Z,101560.06
2022-09-01T14:35:43.654Z,101558.19
2022-09-01T14:38:10.176Z,101557.34
2022-09-01T14:40:36.944Z,101555.47
2022-09-01T14:43:03.360Z,101556.53
2022-09-01T14:45:29.705Z,101551.09
2022-09-01T14:47:56.494Z,101555.72
2022-09-01T14:50:23.386Z,101556.28
2022-09-01T14:52:49.918Z,101557.94
2022-09-01T14:55:16.936Z,101548.13
2022-09-01T14:57:43.358Z,101541.66
2022-09-01T15:00:09.871Z,101544.63
2022-09-01T15:02:36.231Z,101544.63
2022-09-01T15:05:02.824Z,101540.81
2022-09-01T15:07:29.336Z,101540.00
2022-09-01T15:09:55.707Z,101540.81
2022-09-01T15:12:22.005Z,101547.09
2022-09-01T15:14:48.339Z,101541.66
2022-09-01T15:17:14.665Z,101540.00
2022-09-01T15:19:41.476Z,101537.03
2022-09-01T15:22:08.464Z,101533.50
2022-09-01T15:24:34.802Z,101530.78
2022-09-01T15:27:01.197Z,101533.22
2022-09-01T15:29:27.663Z,101534.91
2022-09-01T15:31:54.139Z,101537.84
2022-09-01T15:34:20.716Z,101537.63
2022-09-01T15:36:47.129Z,101531.34
2022-09-01T15:39:13.474Z,101543.03
2022-09-01T15:41:39.832Z,101534.06
2022-09-01T15:44:06.261Z,101537.38
2022-09-01T15:46:32.674Z,101535.69
2022-09-01T15:48:59.164Z,101536.53
2022-09-01T15:51:25.551Z,101539.00
2022-09-01T15:53:51.908Z,101527.31
2022-09-01T15:56:18.261Z,101528.94
2022-09-01T15:59:00.212Z,101524.59
2022-09-01T16:01:27.788Z,101528.16
2022-09-01T16:03:54.298Z,101524.34
2022-09-01T16:06:20.637Z,101524.34
2022-09-01T16:08:47.772Z,101522.72
2022-09-01T16:11:14.092Z,101516.44
2022-09-01T16:13:40.438Z,101526.22
2022-09-01T16:16:06.950Z,101522.72
2022-09-01T16:18:33.562Z,101528.94
2022-09-01T16:20:59.913Z,101525.44
2022-09-01T16:23:26.635Z,101525.44
2022-09-01T16:25:53.163Z,101525.44
2022-09-01T16:28:19.439Z,101530.28
2022-09-01T16:30:45.847Z,101529.13
2022-09-01T16:33:12.444Z,101529.38
2022-09-01T16:35:38.912Z,101521.56
2022-09-01T16:38:05.242Z,101522.16
2022-09-01T16:40:31.679Z,101528.75
2022-09-01T16:42:58.311Z,101524.69
2022-09-01T16:45:25.035Z,101530.13
2022-09-01T16:47:52.983Z,101532.59
2022-09-01T16:50:19.493Z,101528.50
2022-09-01T16:52:45.790Z,101532.59
2022-09-01T16:55:12.112Z,101527.97
2022-09-01T16:57:38.371Z,101538.84
2022-09-01T17:00:05.726Z,101527.97
2022-09-01T17:02:32.214Z,101530.44
2022-09-01T17:04:58.657Z,101531.28
2022-09-01T17:07:29.447Z,101530.97
2022-09-01T17:09:56.204Z,101525.53
2022-09-01T17:12:22.578Z,101520.34
2022-09-01T17:14:49.026Z,101525.78
2022-09-01T17:17:15.414Z,101524.69
2022-09-01T17:19:42.332Z,101527.66
2022-09-01T17:22:08.786Z,101529.22
2022-09-01T17:24:35.533Z,101534.41
2022-09-01T17:27:02.761Z,101540.69
2022-09-01T17:29:29.184Z,101546.09
2022-09-01T17:31:55.493Z,101533.81
2022-09-01T17:34:22.584Z,101543.88
2022-09-01T17:36:49.152Z,101544.13
2022-09-01T17:39:15.521Z,101550.38
2022-09-01T17:41:41.937Z,101546.34
2022-09-01T17:44:08.478Z,101550.69
2022-09-01T17:46:34.877Z,101550.38
2022-09-01T17:49:02.320Z,101562.88
2022-09-01T17:51:29.758Z,101559.34
2022-09-01T17:53:56.108Z,101564.53
2022-09-01T17:56:23.560Z,101569.94
2022-09-01T17:58:49.862Z,101569.38
2022-09-01T18:01:16.388Z,101568.78
2022-09-01T18:03:42.766Z,101570.13
2022-09-01T18:06:09.211Z,101571.19
2022-09-01T18:08:35.604Z,101566.00
2022-09-01T18:11:02.439Z,101566.84
2022-09-01T18:13:51.719Z,101567.09
2022-09-01T18:16:15.242Z,101577.69
2022-09-01T18:18:41.673Z,101571.44
2022-09-01T18:21:08.061Z,101578.19
2022-09-01T18:23:34.388Z,101579.00
2022-09-01T18:26:00.925Z,101581.72
2022-09-01T18:28:27.570Z,101581.13
2022-09-01T18:30:54.971Z,101582.22
2022-09-01T18:33:21.416Z,101589.19
2022-09-01T18:35:48.113Z,101590.00
2022-09-01T18:38:14.461Z,101587.56
2022-09-01T18:40:40.806Z,101594.03
2022-09-01T18:43:07.631Z,101589.44
2022-09-01T18:45:33.992Z,101595.69
2022-09-01T18:48:01.909Z,101594.03
2022-09-01T18:50:28.254Z,101594.31
2022-09-01T18:52:54.526Z,101601.59
2022-09-01T18:55:20.998Z,101598.91
2022-09-01T18:57:47.347Z,101595.09
2022-09-01T19:00:18.782Z,101589.69
2022-09-01T19:02:46.812Z,101591.00
2022-09-01T19:05:13.530Z,101597.59
2022-09-01T19:07:39.988Z,101595.69
2022-09-01T19:10:06.427Z,101600.53
2022-09-01T19:12:32.804Z,101604.09
2022-09-01T19:14:59.152Z,101605.97
2022-09-01T19:17:25.494Z,101606.44
2022-09-01T19:19:51.921Z,101610.81
2022-09-01T19:22:18.206Z,101605.97
2022-09-01T19:24:44.531Z,101610.59
2022-09-01T19:27:10.962Z,101605.03
2022-09-01T19:29:37.363Z,101603.41
2022-09-01T19:32:03.944Z,101604.81
2022-09-01T19:34:30.308Z,101607.03
2022-09-01T19:36:56.771Z,101607.13
2022-09-01T19:39:23.256Z,101602.28
2022-09-01T19:41:50.823Z,101609.00
2022-09-01T19:44:17.241Z,101606.78
2022-09-01T19:46:43.592Z,101611.88
2022-09-01T19:49:10.217Z,101612.63
2022-09-01T19:51:36.607Z,101611.78
2022-09-01T19:54:03.260Z,101606.03
2022-09-01T19:56:29.695Z,101603.56
2022-09-01T19:58:56.250Z,101608.44
2022-09-01T20:01:22.815Z,101601.00
2022-09-01T20:03:49.318Z,101604.88
2022-09-01T20:06:15.977Z,101603.66
2022-09-01T20:08:43.073Z,101609.16
2022-09-01T20:11:09.773Z,101605.72
2022-09-01T20:13:36.174Z,101611.72
2022-09-01T20:16:02.558Z,101620.78
2022-09-01T20:18:28.912Z,101616.50
2022-09-01T20:20:55.368Z,101614.94
2022-09-01T20:23:21.942Z,101613.06
2022-09-01T20:25:49.558Z,101616.34
2022-09-01T20:28:15.860Z,101613.13
2022-09-01T20:30:42.426Z,101615.59
2022-09-01T20:33:10.126Z,101619.97
2022-09-01T20:35:39.220Z,101619.47
2022-09-01T20:38:06.463Z,101615.69
2022-09-01T20:40:32.898Z,101618.97
2022-09-01T20:42:59.335Z,101608.09
2022-09-01T20:45:25.600Z,101615.19
2022-09-01T20:47:52.000Z,101622.28
2022-09-01T20:50:18.303Z,101620.13
2022-09-01T20:52:44.607Z,101619.06
2022-09-01T20:55:10.949Z,101629.09
2022-09-01T20:57:37.273Z,101625.06
2022-09-01T21:00:03.573Z,101632.13
2022-09-01T21:02:30.111Z,101625.66
2022-09-01T21:04:56.572Z,101628.09
2022-09-01T21:07:22.850Z,101628.09
2022-09-01T21:09:49.295Z,101631.19
2022-09-01T21:12:15.590Z,101630.13
2022-09-01T21:14:42.148Z,101628.47
2022-09-01T21:17:08.658Z,101629.03
2022-09-01T21:19:34.982Z,101636.94
2022-09-01T21:22:01.336Z,101632.34
2022-09-01T21:24:27.672Z,101638.56
2022-09-01T21:26:54.142Z,101635.84
2022-09-01T21:29:20.524Z,101633.75
2022-09-01T21:31:48.483Z,101629.94
2022-09-01T21:34:16.944Z,101637.00
2022-09-01T21:36:43.524Z,101628.06
2022-09-01T21:39:10.791Z,101636.78
2022-09-01T21:41:38.913Z,101630.25
2022-09-01T21:44:05.242Z,101630.25
2022-09-01T21:46:31.547Z,101624.59
2022-09-01T21:48:57.949Z,101631.41
2022-09-01T21:51:24.522Z,101622.69
2022-09-01T21:53:50.856Z,101630.59
2022-09-01T21:56:17.475Z,101624.34
2022-09-01T21:58:52.228Z,101629.53
2022-09-01T22:01:18.644Z,101630.38
2022-09-01T22:03:45.106Z,101632.72
2022-09-01T22:06:11.717Z,101620.47
2022-09-01T22:08:38.199Z,101624.28
2022-09-01T22:11:04.541Z,101630.25
2022-09-01T22:13:30.985Z,101624.81
2022-09-01T22:15:57.749Z,101618.84
2022-09-01T22:18:24.079Z,101625.66
2022-09-01T22:20:50.416Z,101615.03
2022-09-01T22:23:16.853Z,101623.19
2022-09-01T22:25:43.196Z,101618.59
2022-09-01T22:28:09.530Z,101619.66
2022-09-01T22:30:36.038Z,101616.97
2022-09-01T22:33:02.477Z,101625.91
2022-09-01T22:35:29.021Z,101616.13
2022-09-01T22:37:55.362Z,101618.84
2022-09-01T22:40:22.898Z,101622.38
2022-09-01T22:42:49.234Z,101625.09
2022-09-01T22:45:15.552Z,101620.72
2022-09-01T22:47:41.980Z,101621.78
2022-09-01T22:50:08.383Z,101616.38
2022-09-01T22:52:34.783Z,101618.25
2022-09-01T22:55:01.064Z,101609.28
2022-09-01T22:57:27.507Z,101612.00
2022-09-01T22:59:53.864Z,101612.81
2022-09-01T23:02:20.258Z,101610.09
2022-09-01T23:04:46.772Z,101611.19
2022-09-01T23:07:13.160Z,101603.88
2022-09-01T23:09:39.483Z,101608.47
2022-09-01T23:12:05.924Z,101603.03
2022-09-01T23:14:32.276Z,101595.97
2022-09-01T23:16:58.845Z,101599.50
2022-09-01T23:19:25.270Z,101603.88
2022-09-01T23:21:51.664Z,101606.81
2022-09-01T23:24:19.814Z,101600.56
2022-09-01T23:26:46.420Z,101604.09
2022-09-01T23:29:13.080Z,101604.09
2022-09-01T23:31:39.624Z,101595.13
2022-09-01T23:34:06.244Z,101596.19
2022-09-01T23:36:32.884Z,101597.03
2022-09-01T23:38:59.301Z,101595.13
2022-09-01T23:41:25.611Z,101593.50
2022-09-01T23:43:51.964Z,101592.66
2022-09-01T23:46:18.418Z,101590.78
2022-09-01T23:48:44.813Z,101594.31
2022-09-01T23:51:11.118Z,101593.50
2022-09-01T23:53:37.455Z,101591.25
2022-09-01T23:56:03.753Z,101595.66
2022-09-01T23:58:30.058Z,101596.44
